Time;durP1;ratioP1;P1;durP2;ratioP2;P2;SDS_P1;SDS_P2;PMS_P1;PMS_P2;Temp;Humidity;BMP_temperature;BMP_pressure;BME280_temperature;BME280_humidity;BME280_pressure;Samples;Min_cycle;Max_cycle;Signal;HPM_P1;HPM_P2
2024/02/28 00:02:17;;;;;;;;;;;;;;;1.22;100.00;101536.27;108115;1257;61128;-66
2024/02/28 00:04:50;;;;;;;;;;;;;;;1.23;100.00;101544.69;108089;1254;60114;-66
2024/02/28 00:07:18;;;;;;;;;;;;;;;1.24;100.00;101543.77;108118;1258;74683;-67
2024/02/28 00:09:46;;;;;;;;;;;;;;;1.25;100.00;101542.77;108092;1254;72962;-67
2024/02/28 00:12:15;;;;;;;;;;;;;;;1.26;100.00;101539.16;108071;1256;71409;-67
2024/02/28 00:14:43;;;;;;;;;;;;;;;1.25;100.00;101539.98;108165;1254;59955;-67
2024/02/28 00:17:11;;;;;;;;;;;;;;;1.23;100.00;101541.23;108091;1254;60569;-67
2024/02/28 00:19:39;;;;;;;;;;;;;;;1.19;100.00;101539.05;108073;1254;73708;-67
2024/02/28 00:22:07;;;;;;;;;;;;;;;1.18;100.00;101539.48;108078;1254;71607;-67
2024/02/28 00:24:35;;;;;;;;;;;;;;;1.18;100.00;101538.96;108213;1257;71473;-67
2024/02/28 00:27:02;;;;;;;;;;;;;;;1.19;100.00;101536.91;108189;1254;61364;-67
2024/02/28 00:29:30;;;;;;;;;;;;;;;1.20;100.00;101539.08;108263;1254;61071;-67
2024/02/28 00:31:57;;;;;;;;;;;;;;;1.22;100.00;101536.63;108201;1254;73556;-67
2024/02/28 00:34:25;;;;;;;;;;;;;;;1.23;100.00;101536.44;108215;1258;71621;-66
2024/02/28 00:36:53;;;;;;;;;;;;;;;1.25;100.00;101532.54;108161;1254;70945;-66
2024/02/28 00:39:23;;;;;;;;;;;;;;;1.26;100.00;101534.19;108148;1257;61099;-67
2024/02/28 00:41:50;;;;;;;;;;;;;;;1.25;100.00;101535.98;108017;1254;61196;-67
2024/02/28 00:44:18;;;;;;;;;;;;;;;1.24;100.00;101533.44;108178;1254;73965;-67
2024/02/28 00:46:46;;;;;;;;;;;;;;;1.25;100.00;101533.96;108201;1254;71776;-66
2024/02/28 00:49:13;;;;;;;;;;;;;;;1.26;100.00;101531.55;108055;1255;72795;-67
2024/02/28 00:51:41;;;;;;;;;;;;;;;1.28;100.00;101533.96;108012;1257;61009;-68
2024/02/28 00:54:09;;;;;;;;;;;;;;;1.31;100.00;101531.23;107994;1255;61214;-67
2024/02/28 00:56:36;;;;;;;;;;;;;;;1.33;100.00;101529.58;107988;1254;73576;-66
2024/02/28 00:59:06;;;;;;;;;;;;;;;1.39;100.00;101526.62;108198;1259;71574;-66
2024/02/28 01:01:33;;;;;;;;;;;;;;;1.43;100.00;101525.97;108038;1256;71570;-65
2024/02/28 01:04:01;;;;;;;;;;;;;;;1.44;100.00;101524.45;108025;1258;61094;-66
2024/02/28 01:06:29;;;;;;;;;;;;;;;1.49;100.00;101519.92;108123;1254;60001;-67
2024/02/28 01:08:57;;;;;;;;;;;;;;;1.54;100.00;101523.52;108234;1254;73481;-66
2024/02/28 01:11:25;;;;;;;;;;;;;;;1.58;100.00;101522.13;108184;1254;72082;-65
2024/02/28 01:13:53;;;;;;;;;;;;;;;1.64;100.00;101524.66;108070;1254;71443;-66
2024/02/28 01:16:20;;;;;;;;;;;;;;;1.68;100.00;101523.03;108149;1255;61117;-67
2024/02/28 01:18:48;;;;;;;;;;;;;;;1.69;100.00;101518.52;108016;1254;60716;-67
2024/02/28 01:21:16;;;;;;;;;;;;;;;1.70;100.00;101519.46;108030;1254;73341;-67
2024/02/28 01:23:43;;;;;;;;;;;;;;;1.70;100.00;101519.05;108090;1254;72719;-69
2024/02/28 01:26:11;;;;;;;;;;;;;;;1.71;100.00;101521.30;108060;1254;71144;-68
2024/02/28 01:28:39;;;;;;;;;;;;;;;1.69;100.00;101518.85;108109;1254;61007;-67
2024/02/28 01:31:07;;;;;;;;;;;;;;;1.67;100.00;101517.84;108173;1254;60506;-66
2024/02/28 01:33:34;;;;;;;;;;;;;;;1.63;100.00;101515.98;108299;1254;73543;-67
2024/02/28 01:36:02;;;;;;;;;;;;;;;1.63;100.00;101519.54;108184;1254;71146;-66
2024/02/28 01:38:29;;;;;;;;;;;;;;;1.62;100.00;101514.11;108172;1258;72804;-67
2024/02/28 01:40:57;;;;;;;;;;;;;;;1.61;100.00;101511.06;108178;1254;61183;-66
2024/02/28 01:43:25;;;;;;;;;;;;;;;1.58;100.00;101511.40;108176;1254;61129;-67
2024/02/28 01:45:52;;;;;;;;;;;;;;;1.57;100.00;101511.86;108144;1254;73696;-66
2024/02/28 01:48:20;;;;;;;;;;;;;;;1.57;100.00;101511.90;108188;1253;71465;-66
2024/02/28 01:50:48;;;;;;;;;;;;;;;1.57;100.00;101514.33;108136;1254;71491;-67
2024/02/28 01:53:15;;;;;;;;;;;;;;;1.59;100.00;101511.66;108118;1254;61197;-66
2024/02/28 01:55:47;;;;;;;;;;;;;;;1.61;100.00;101507.80;108035;1254;59232;-67
2024/02/28 01:58:15;;;;;;;;;;;;;;;1.61;100.00;101508.59;108112;1254;74744;-66
2024/02/28 02:00:42;;;;;;;;;;;;;;;1.63;100.00;101506.63;108096;1257;71613;-66
2024/02/28 02:03:10;;;;;;;;;;;;;;;1.63;100.00;101508.77;108004;1257;71807;-66
2024/02/28 02:05:38;;;;;;;;;;;;;;;1.63;100.00;101506.80;107993;1254;61246;-67
2024/02/28 02:08:05;;;;;;;;;;;;;;;1.64;100.00;101509.16;108091;1255;61103;-67
2024/02/28 02:10:33;;;;;;;;;;;;;;;1.65;100.00;101509.05;108126;1254;73389;-67
2024/02/28 02:13:04;;;;;;;;;;;;;;;1.66;100.00;101509.67;108005;1257;71588;-69
2024/02/28 02:15:32;;;;;;;;;;;;;;;1.66;100.00;101504.94;108035;1254;71406;-68
2024/02/28 02:17:59;;;;;;;;;;;;;;;1.66;100.00;101501.13;108108;1256;61131;-71
2024/02/28 02:20:29;;;;;;;;;;;;;;;1.66;100.00;101499.48;108178;1254;61229;-68
2024/02/28 02:22:56;;;;;;;;;;;;;;;1.64;100.00;101498.42;108222;1254;74724;-68
2024/02/28 02:25:24;;;;;;;;;;;;;;;1.64;100.00;101497.04;108045;1254;72668;-65
2024/02/28 02:27:52;;;;;;;;;;;;;;;1.65;100.00;101497.73;108147;1255;72757;-67
2024/02/28 02:30:20;;;;;;;;;;;;;;;1.66;100.00;101500.36;108164;1258;61208;-65
2024/02/28 02:32:47;;;;;;;;;;;;;;;1.68;100.00;101505.65;108027;1254;61331;-67
2024/02/28 02:35:15;;;;;;;;;;;;;;;1.71;100.00;101505.14;108009;1255;74769;-67
2024/02/28 02:37:45;;;;;;;;;;;;;;;1.73;100.00;101511.42;107957;1260;71656;-66
2024/02/28 02:40:13;;;;;;;;;;;;;;;1.74;100.00;101510.55;107970;1260;72494;-67
2024/02/28 02:42:41;;;;;;;;;;;;;;;1.76;100.00;101511.55;108046;1256;60264;-67
2024/02/28 02:45:09;;;;;;;;;;;;;;;1.77;100.00;101512.44;108063;1254;59571;-66
2024/02/28 02:47:36;;;;;;;;;;;;;;;1.81;100.00;101513.59;108052;1254;73691;-66
2024/02/28 02:50:05;;;;;;;;;;;;;;;1.86;100.00;101517.54;107818;1262;75203;-67
2024/02/28 02:52:32;;;;;;;;;;;;;;;1.89;100.00;101518.31;108006;1254;70141;-66
2024/02/28 02:55:00;;;;;;;;;;;;;;;1.92;100.00;101516.51;108052;1254;61204;-66
2024/02/28 02:57:27;;;;;;;;;;;;;;;1.94;100.00;101517.19;108016;1255;61195;-67
2024/02/28 02:59:55;;;;;;;;;;;;;;;1.94;100.00;101516.83;108026;1254;74676;-67
2024/02/28 03:02:23;;;;;;;;;;;;;;;1.94;100.00;101519.83;108113;1254;71532;-67
2024/02/28 03:04:50;;;;;;;;;;;;;;;1.96;100.00;101515.06;108068;1257;71447;-66
2024/02/28 03:07:18;;;;;;;;;;;;;;;1.94;100.00;101518.39;108128;1257;61131;-67
2024/02/28 03:09:45;;;;;;;;;;;;;;;1.93;100.00;101514.48;108000;1256;61220;-67
2024/02/28 03:12:13;;;;;;;;;;;;;;;1.94;100.00;101515.05;108056;1260;73381;-68
2024/02/28 03:14:42;;;;;;;;;;;;;;;1.94;100.00;101514.05;108012;1257;71462;-67
2024/02/28 03:17:09;;;;;;;;;;;;;;;1.92;100.00;101516.18;107921;1260;71446;-66
2024/02/28 03:19:37;;;;;;;;;;;;;;;1.92;100.00;101514.11;108084;1260;60148;-67
2024/02/28 03:22:05;;;;;;;;;;;;;;;1.92;100.00;101517.96;108010;1254;59958;-66
2024/02/28 03:24:35;;;;;;;;;;;;;;;1.92;100.00;101514.64;108143;1259;74641;-67
2024/02/28 03:27:03;;;;;;;;;;;;;;;1.93;100.00;101517.98;107975;1254;70828;-66
2024/02/28 03:29:30;;;;;;;;;;;;;;;1.93;100.00;101515.87;108108;1254;71377;-67
2024/02/28 03:31:58;;;;;;;;;;;;;;;1.95;100.00;101513.20;107999;1257;61088;-68
2024/02/28 03:34:26;;;;;;;;;;;;;;;1.98;100.00;101516.92;108009;1254;60068;-67
2024/02/28 03:36:53;;;;;;;;;;;;;;;2.01;100.00;101518.65;108001;1254;73384;-67
2024/02/28 03:39:21;;;;;;;;;;;;;;;2.03;100.00;101518.80;107976;1257;71430;-67
2024/02/28 03:41:49;;;;;;;;;;;;;;;2.03;100.00;101521.36;108021;1257;71522;-67
2024/02/28 03:44:16;;;;;;;;;;;;;;;2.03;100.00;101522.13;108029;1260;61123;-67
2024/02/28 03:46:44;;;;;;;;;;;;;;;2.02;100.00;101521.10;107994;1260;61077;-68
2024/02/28 03:49:11;;;;;;;;;;;;;;;2.04;100.00;101520.27;108020;1259;73652;-68
2024/02/28 03:51:40;;;;;;;;;;;;;;;2.07;100.00;101515.17;107997;1257;71376;-67
2024/02/28 03:54:08;;;;;;;;;;;;;;;2.09;100.00;101515.61;108017;1259;72702;-66
2024/02/28 03:56:36;;;;;;;;;;;;;;;2.12;100.00;101517.44;108020;1254;61126;-67
2024/02/28 03:59:03;;;;;;;;;;;;;;;2.17;100.00;101513.23;108144;1254;61135;-66
2024/02/28 04:01:31;;;;;;;;;;;;;;;2.21;100.00;101517.55;108050;1254;72840;-66
2024/02/28 04:03:59;;;;;;;;;;;;;;;2.27;100.00;101520.87;108092;1259;72167;-66
2024/02/28 04:06:26;;;;;;;;;;;;;;;2.33;100.00;101520.39;108008;1259;71257;-67
2024/02/28 04:08:54;;;;;;;;;;;;;;;2.37;100.00;101518.90;108142;1254;61131;-67
2024/02/28 04:11:22;;;;;;;;;;;;;;;2.40;100.00;101526.12;108027;1254;59652;-68
2024/02/28 04:13:49;;;;;;;;;;;;;;;2.43;100.00;101528.08;108134;1259;73654;-67
2024/02/28 04:16:17;;;;;;;;;;;;;;;2.45;100.00;101526.95;108100;1258;71552;-67
2024/02/28 04:18:44;;;;;;;;;;;;;;;2.46;100.00;101522.54;108048;1258;71358;-66
2024/02/28 04:21:12;;;;;;;;;;;;;;;2.49;100.00;101524.94;108020;1259;61131;-67
2024/02/28 04:23:41;;;;;;;;;;;;;;;2.52;100.00;101523.80;108186;1258;61237;-67
2024/02/28 04:26:09;;;;;;;;;;;;;;;2.56;100.00;101527.55;108019;1255;73660;-66
2024/02/28 04:28:37;;;;;;;;;;;;;;;2.59;100.00;101526.99;107977;1254;71258;-68
2024/02/28 04:31:04;;;;;;;;;;;;;;;2.62;100.00;101524.71;107919;1254;71450;-67
2024/02/28 04:33:32;;;;;;;;;;;;;;;2.64;100.00;101524.19;108036;1255;59265;-67
2024/02/28 04:36:01;;;;;;;;;;;;;;;2.64;100.00;101523.93;108017;1259;59177;-67
2024/02/28 04:38:29;;;;;;;;;;;;;;;2.63;100.00;101525.02;107939;1255;72466;-67
2024/02/28 04:40:57;;;;;;;;;;;;;;;2.62;100.00;101526.50;107984;1257;72763;-67
2024/02/28 04:43:25;;;;;;;;;;;;;;;2.61;100.00;101523.98;107978;1254;71624;-67
2024/02/28 04:45:52;;;;;;;;;;;;;;;2.58;100.00;101524.42;107935;1259;61092;-66
2024/02/28 04:48:20;;;;;;;;;;;;;;;2.56;100.00;101526.10;108011;1254;61231;-67
2024/02/28 04:50:48;;;;;;;;;;;;;;;2.54;100.00;101529.23;108007;1254;73396;-67
2024/02/28 04:53:16;;;;;;;;;;;;;;;2.55;100.00;101530.98;107942;1254;71638;-67
2024/02/28 04:55:43;;;;;;;;;;;;;;;2.58;100.00;101529.52;107992;1258;73758;-67
2024/02/28 04:58:11;;;;;;;;;;;;;;;2.62;100.00;101532.63;108049;1256;60619;-67
2024/02/28 05:00:38;;;;;;;;;;;;;;;2.71;100.00;101533.00;108269;1254;61009;-65
2024/02/28 05:03:06;;;;;;;;;;;;;;;2.82;100.00;101533.85;108122;1254;73351;-67
2024/02/28 05:05:34;;;;;;;;;;;;;;;2.74;100.00;101532.24;108074;1255;71203;-66
2024/02/28 05:08:02;;;;;;;;;;;;;;;2.71;100.00;101536.17;107984;1258;71503;-67
2024/02/28 05:10:29;;;;;;;;;;;;;;;2.71;100.00;101534.47;108021;1257;61467;-66
2024/02/28 05:12:57;;;;;;;;;;;;;;;2.72;100.00;101535.00;107987;1254;61010;-67
2024/02/28 05:15:25;;;;;;;;;;;;;;;2.72;100.00;101539.92;107958;1254;74499;-66
2024/02/28 05:17:53;;;;;;;;;;;;;;;2.71;100.00;101542.11;107937;1255;75055;-68
2024/02/28 05:20:21;;;;;;;;;;;;;;;2.70;100.00;101547.20;107950;1256;71412;-69
2024/02/28 05:22:48;;;;;;;;;;;;;;;2.67;100.00;101548.05;107981;1260;61135;-68
2024/02/28 05:25:16;;;;;;;;;;;;;;;2.68;100.00;101547.05;108113;1254;60221;-67
2024/02/28 05:27:44;;;;;;;;;;;;;;;2.70;100.00;101550.91;108100;1254;74734;-67
2024/02/28 05:30:12;;;;;;;;;;;;;;;2.72;100.00;101551.36;107992;1260;71707;-68
2024/02/28 05:32:39;;;;;;;;;;;;;;;2.74;100.00;101552.58;108032;1254;72718;-67
2024/02/28 05:35:07;;;;;;;;;;;;;;;2.75;100.00;101552.98;108158;1254;61081;-67
2024/02/28 05:37:35;;;;;;;;;;;;;;;2.74;100.00;101552.14;108037;1260;61307;-67
2024/02/28 05:40:03;;;;;;;;;;;;;;;2.74;100.00;101551.84;108009;1254;73444;-67
2024/02/28 05:42:31;;;;;;;;;;;;;;;2.74;100.00;101552.66;107943;1255;71879;-67
2024/02/28 05:44:59;;;;;;;;;;;;;;;2.80;100.00;101550.99;107969;1257;71756;-68
2024/02/28 05:47:27;;;;;;;;;;;;;;;2.85;100.00;101553.01;107974;1254;61067;-67
2024/02/28 05:49:56;;;;;;;;;;;;;;;2.89;100.00;101554.32;107931;1256;61116;-67
2024/02/28 05:52:27;;;;;;;;;;;;;;;2.90;100.00;101551.66;108052;1254;73839;-67
2024/02/28 05:54:55;;;;;;;;;;;;;;;2.94;100.00;101550.66;108039;1254;71421;-68
2024/02/28 05:57:23;;;;;;;;;;;;;;;2.99;100.00;101548.99;108191;1254;71679;-68
2024/02/28 05:59:51;;;;;;;;;;;;;;;3.03;100.00;101551.85;108253;1254;60462;-67
2024/02/28 06:02:19;;;;;;;;;;;;;;;3.07;100.00;101552.18;108013;1254;61224;-66
2024/02/28 06:04:46;;;;;;;;;;;;;;;3.09;100.00;101551.92;108053;1260;74668;-67
2024/02/28 06:07:14;;;;;;;;;;;;;;;3.11;100.00;101551.84;107980;1255;71733;-66
2024/02/28 06:09:42;;;;;;;;;;;;;;;3.14;100.00;101551.84;108009;1254;71982;-66
2024/02/28 06:12:10;;;;;;;;;;;;;;;3.21;100.00;101554.14;108014;1257;61097;-67
2024/02/28 06:14:37;;;;;;;;;;;;;;;3.27;100.00;101558.05;108035;1254;61019;-68
2024/02/28 06:17:05;;;;;;;;;;;;;;;3.35;100.00;101559.15;107985;1254;73425;-68
2024/02/28 06:19:33;;;;;;;;;;;;;;;3.43;100.00;101558.34;108011;1254;70759;-67
2024/02/28 06:22:00;;;;;;;;;;;;;;;3.50;100.00;101559.50;108051;1254;71525;-68
2024/02/28 06:24:28;;;;;;;;;;;;;;;3.60;100.00;101564.13;108083;1260;61102;-67
2024/02/28 06:26:56;;;;;;;;;;;;;;;3.69;100.00;101563.37;108024;1254;60758;-67
2024/02/28 06:29:24;;;;;;;;;;;;;;;3.78;100.00;101567.65;108071;1254;73355;-67
2024/02/28 06:31:51;;;;;;;;;;;;;;;3.88;100.00;101568.00;107986;1254;72696;-66
2024/02/28 06:34:19;;;;;;;;;;;;;;;3.97;100.00;101565.17;108087;1254;72955;-67
2024/02/28 06:36:47;;;;;;;;;;;;;;;4.06;100.00;101560.41;108053;1260;61129;-67
2024/02/28 06:39:15;;;;;;;;;;;;;;;4.14;99.12;101564.84;108051;1254;61247;-67
2024/02/28 06:41:42;;;;;;;;;;;;;;;4.21;97.73;101569.23;108047;1254;74591;-67
2024/02/28 06:44:11;;;;;;;;;;;;;;;4.30;96.54;101569.23;108116;1254;71614;-67
2024/02/28 06:46:39;;;;;;;;;;;;;;;4.39;95.32;101570.02;108059;1257;71406;-66
2024/02/28 06:49:06;;;;;;;;;;;;;;;4.48;94.00;101569.31;108042;1254;61112;-67
2024/02/28 06:51:34;;;;;;;;;;;;;;;4.55;92.51;101566.11;108041;1254;61122;-70
2024/02/28 06:54:03;;;;;;;;;;;;;;;4.61;91.11;101565.64;108101;1254;74659;-67
2024/02/28 06:56:30;;;;;;;;;;;;;;;4.67;89.59;101569.88;108029;1259;71306;-67
2024/02/28 06:58:58;;;;;;;;;;;;;;;4.73;88.70;101566.90;108040;1256;72499;-66
2024/02/28 07:01:25;;;;;;;;;;;;;;;4.80;87.62;101563.70;108020;1257;61725;-66
2024/02/28 07:03:53;;;;;;;;;;;;;;;4.87;86.61;101565.77;108040;1254;61928;-66
2024/02/28 07:06:21;;;;;;;;;;;;;;;4.95;85.57;101565.79;107990;1254;73370;-65
2024/02/28 07:08:49;;;;;;;;;;;;;;;5.04;84.47;101566.15;107945;1254;73852;-66
2024/02/28 07:11:19;;;;;;;;;;;;;;;5.12;83.10;101568.81;108080;1254;73604;-66
2024/02/28 07:13:46;;;;;;;;;;;;;;;5.20;81.80;101568.67;107895;1257;61084;-66
2024/02/28 07:16:14;;;;;;;;;;;;;;;5.27;80.12;101565.66;107999;1254;61089;-67
2024/02/28 07:18:42;;;;;;;;;;;;;;;5.34;78.43;101568.58;107921;1254;76838;-67
2024/02/28 07:21:09;;;;;;;;;;;;;;;5.44;77.56;101574.56;108005;1254;71246;-66
2024/02/28 07:23:40;;;;;;;;;;;;;;;5.53;76.60;101577.75;108016;1254;72411;-66
2024/02/28 07:26:08;;;;;;;;;;;;;;;5.63;75.49;101579.86;107934;1258;61205;-66
2024/02/28 07:28:52;;;;;;;;;;;;;;;5.72;74.54;101576.79;107798;1254;201943;-66
2024/02/28 07:31:19;;;;;;;;;;;;;;;5.80;73.54;101580.95;107979;1254;74467;-66
2024/02/28 07:33:47;;;;;;;;;;;;;;;5.89;72.19;101579.33;107966;1254;71447;-66
2024/02/28 07:36:15;;;;;;;;;;;;;;;5.94;71.06;101580.59;108035;1254;74886;-67
2024/02/28 07:38:43;;;;;;;;;;;;;;;5.99;69.94;101579.86;108142;1254;61367;-65
2024/02/28 07:41:10;;;;;;;;;;;;;;;6.01;69.16;101582.73;107946;1254;61221;-66
2024/02/28 07:43:41;;;;;;;;;;;;;;;6.04;68.31;101583.55;107982;1254;72657;-67
2024/02/28 07:46:10;;;;;;;;;;;;;;;6.08;67.67;101586.61;108053;1254;73618;-65
2024/02/28 07:48:38;;;;;;;;;;;;;;;6.13;67.30;101587.04;108021;1254;75336;-66
2024/02/28 07:51:07;;;;;;;;;;;;;;;6.19;67.15;101592.88;108161;1254;61398;-66
2024/02/28 07:53:35;;;;;;;;;;;;;;;6.24;66.50;101592.10;107984;1254;60747;-65
2024/02/28 07:56:03;;;;;;;;;;;;;;;6.23;65.85;101592.14;108083;1254;76337;-66
2024/02/28 07:58:31;;;;;;;;;;;;;;;6.21;65.24;101590.55;107930;1254;74934;-66
2024/02/28 08:00:58;;;;;;;;;;;;;;;6.20;64.86;101594.39;108034;1259;74896;-66
2024/02/28 08:03:26;;;;;;;;;;;;;;;6.20;64.76;101591.69;107973;1254;61401;-67
2024/02/28 08:05:54;;;;;;;;;;;;;;;6.24;64.68;101589.25;107952;1254;61359;-66
2024/02/28 08:08:23;;;;;;;;;;;;;;;6.29;64.49;101592.27;107982;1254;74965;-66
2024/02/28 08:10:52;;;;;;;;;;;;;;;6.33;64.30;101587.51;107944;1254;74980;-66
2024/02/28 08:13:22;;;;;;;;;;;;;;;6.38;63.91;101590.81;108153;1254;72452;-65
2024/02/28 08:15:52;;;;;;;;;;;;;;;6.41;63.77;101588.61;108151;1253;61425;-65
2024/02/28 08:18:23;;;;;;;;;;;;;;;6.47;63.53;101591.17;108041;1254;61152;-66
2024/02/28 08:20:53;;;;;;;;;;;;;;;6.53;63.42;101588.56;107885;1254;76845;-66
2024/02/28 08:23:26;;;;;;;;;;;;;;;6.62;63.28;101588.20;108122;1254;74967;-66
2024/02/28 08:26:00;;;;;;;;;;;;;;;6.72;63.03;101584.99;107887;1256;74221;-65
2024/02/28 08:28:33;;;;;;;;;;;;;;;6.83;62.95;101581.88;107867;1255;61206;-67
2024/02/28 08:31:02;;;;;;;;;;;;;;;6.93;62.50;101584.27;108006;1254;61058;-67
2024/02/28 08:33:31;;;;;;;;;;;;;;;6.98;61.98;101580.63;108121;1254;77262;-67
2024/02/28 08:36:00;;;;;;;;;;;;;;;7.00;61.62;101581.93;108032;1254;72925;-67
2024/02/28 08:38:31;;;;;;;;;;;;;;;7.01;61.20;101578.10;107966;1256;71050;-65
2024/02/28 08:40:59;;;;;;;;;;;;;;;7.00;60.81;101577.72;107974;1257;61105;-66
2024/02/28 08:43:27;;;;;;;;;;;;;;;6.99;60.80;101583.94;108036;1254;61097;-66
2024/02/28 08:45:58;;;;;;;;;;;;;;;7.01;60.70;101577.80;107961;1254;74469;-66
2024/02/28 08:48:37;;;;;;;;;;;;;;;6.99;60.80;101577.77;107834;1254;72990;-65
2024/02/28 08:51:06;;;;;;;;;;;;;;;7.03;61.13;101580.83;107957;1254;74821;-64
2024/02/28 08:53:38;;;;;;;;;;;;;;;7.09;61.05;101580.84;107924;1254;61482;-66
2024/02/28 08:56:22;;;;;;;;;;;;;;;7.14;60.81;101583.36;108061;1254;59832;-66
2024/02/28 08:58:56;;;;;;;;;;;;;;;7.20;60.49;101583.43;107970;1254;75115;-66
2024/02/28 09:01:24;;;;;;;;;;;;;;;7.26;60.22;101580.64;107999;1254;74884;-68
2024/02/28 09:03:52;;;;;;;;;;;;;;;7.29;59.97;101576.81;108089;1259;72739;-67
2024/02/28 09:06:20;;;;;;;;;;;;;;;7.31;59.89;101574.86;108110;1253;61219;-66
2024/02/28 09:08:48;;;;;;;;;;;;;;;7.35;60.02;101574.95;108155;1254;62051;-66
2024/02/28 09:11:15;;;;;;;;;;;;;;;7.46;60.02;101575.94;108214;1254;75084;-66
2024/02/28 09:13:43;;;;;;;;;;;;;;;7.56;59.78;101574.38;108152;1259;73582;-66
2024/02/28 09:16:11;;;;;;;;;;;;;;;7.65;59.48;101574.54;108075;1254;74754;-67
2024/02/28 09:18:39;;;;;;;;;;;;;;;7.69;59.05;101575.30;108107;1253;61795;-68
2024/02/28 09:21:07;;;;;;;;;;;;;;;7.76;58.98;101580.91;108124;1254;62023;-66
2024/02/28 09:23:35;;;;;;;;;;;;;;;7.87;58.65;101581.63;108019;1254;75141;-66
2024/02/28 09:26:03;;;;;;;;;;;;;;;7.94;58.50;101578.51;107926;1254;75011;-66
2024/02/28 09:28:31;;;;;;;;;;;;;;;8.05;58.31;101579.39;107932;1254;73902;-66
2024/02/28 09:30:59;;;;;;;;;;;;;;;8.17;57.81;101574.76;107983;1254;61467;-66
2024/02/28 09:33:30;;;;;;;;;;;;;;;8.28;57.32;101573.58;107940;1254;61013;-66
2024/02/28 09:35:57;;;;;;;;;;;;;;;8.32;56.50;101571.65;108011;1254;73692;-67
2024/02/28 09:38:25;;;;;;;;;;;;;;;8.34;56.34;101573.16;108005;1254;74784;-66
2024/02/28 09:40:53;;;;;;;;;;;;;;;8.35;56.07;101573.94;107993;1254;74891;-66
2024/02/28 09:43:41;;;;;;;;;;;;;;;8.38;56.04;101571.67;107926;1254;61234;-68
2024/02/28 09:46:12;;;;;;;;;;;;;;;8.44;55.84;101572.79;108088;1254;61987;-67
2024/02/28 09:48:40;;;;;;;;;;;;;;;8.41;55.85;101569.47;108159;1254;76875;-66
2024/02/28 09:51:09;;;;;;;;;;;;;;;8.50;55.75;101568.80;108045;1254;75007;-66
2024/02/28 09:53:37;;;;;;;;;;;;;;;8.56;55.90;101572.35;108132;1254;73278;-66
2024/02/28 09:56:06;;;;;;;;;;;;;;;8.63;55.79;101572.00;107984;1254;61217;-66
2024/02/28 09:58:35;;;;;;;;;;;;;;;8.70;55.62;101570.61;107950;1254;61134;-66
2024/02/28 10:01:03;;;;;;;;;;;;;;;8.81;55.45;101575.58;107875;1254;76810;-65
2024/02/28 10:03:32;;;;;;;;;;;;;;;8.88;55.16;101570.61;107970;1254;74926;-65
2024/02/28 10:06:00;;;;;;;;;;;;;;;8.97;55.24;101570.11;108076;1257;73491;-66
2024/02/28 10:08:32;;;;;;;;;;;;;;;9.07;54.84;101569.64;108087;1254;61128;-67
2024/02/28 10:10:59;;;;;;;;;;;;;;;9.13;54.53;101568.33;108090;1254;60377;-65
2024/02/28 10:13:27;;;;;;;;;;;;;;;9.18;54.37;101569.27;108079;1254;74761;-66
2024/02/28 10:15:54;;;;;;;;;;;;;;;9.22;54.15;101565.53;108133;1254;71894;-67
2024/02/28 10:18:22;;;;;;;;;;;;;;;9.25;53.89;101563.28;108078;1254;72931;-66
2024/02/28 10:20:50;;;;;;;;;;;;;;;9.28;53.79;101564.11;108087;1254;61093;-66
2024/02/28 10:23:18;;;;;;;;;;;;;;;9.29;53.65;101565.52;108109;1254;59008;-68
2024/02/28 10:25:46;;;;;;;;;;;;;;;9.30;53.60;101562.19;108058;1254;74703;-65
2024/02/28 10:28:24;;;;;;;;;;;;;;;9.34;53.73;101557.09;107920;1254;72978;-66
2024/02/28 10:30:53;;;;;;;;;;;;;;;9.41;53.61;101557.27;107906;1254;74892;-66
2024/02/28 10:33:21;;;;;;;;;;;;;;;9.44;53.61;101553.70;107905;1254;61674;-66
2024/02/28 10:35:51;;;;;;;;;;;;;;;9.49;53.61;101550.67;108124;1254;61083;-66
2024/02/28 10:38:19;;;;;;;;;;;;;;;9.57;53.53;101546.52;108036;1254;75616;-65
2024/02/28 10:40:47;;;;;;;;;;;;;;;9.62;53.40;101543.49;108141;1254;72751;-66
2024/02/28 10:43:16;;;;;;;;;;;;;;;9.60;53.02;101541.01;108107;1259;74787;-66
2024/02/28 10:45:44;;;;;;;;;;;;;;;9.59;53.26;101540.06;108171;1254;61108;-66
2024/02/28 10:48:32;;;;;;;;;;;;;;;9.64;53.16;101539.44;108043;1254;61135;-66
2024/02/28 10:51:00;;;;;;;;;;;;;;;9.71;52.99;101530.48;108004;1254;76926;-66
2024/02/28 10:53:32;;;;;;;;;;;;;;;9.76;52.75;101526.78;108094;1255;72800;-66
2024/02/28 10:56:01;;;;;;;;;;;;;;;9.79;52.60;101529.16;108036;1256;75004;-65
2024/02/28 10:58:30;;;;;;;;;;;;;;;9.82;52.62;101521.56;108029;1254;61202;-65
2024/02/28 11:00:57;;;;;;;;;;;;;;;9.83;52.43;101520.45;108079;1254;62069;-65
2024/02/28 11:03:25;;;;;;;;;;;;;;;9.83;52.34;101516.77;108007;1254;76882;-66
2024/02/28 11:05:53;;;;;;;;;;;;;;;9.85;52.34;101510.59;108055;1254;75064;-67
2024/02/28 11:08:22;;;;;;;;;;;;;;;9.87;52.13;101510.95;108014;1259;74127;-66
2024/02/28 11:11:01;;;;;;;;;;;;;;;9.90;51.86;101505.20;108057;1256;61735;-66
2024/02/28 11:13:30;;;;;;;;;;;;;;;9.92;51.73;101503.23;108028;1254;62040;-65
2024/02/28 11:16:08;;;;;;;;;;;;;;;9.92;51.57;101500.45;107907;1260;76917;-66
2024/02/28 11:18:36;;;;;;;;;;;;;;;9.91;51.69;101503.95;108029;1254;74067;-66
2024/02/28 11:21:14;;;;;;;;;;;;;;;9.96;51.68;101500.22;108116;1254;73958;-66
2024/02/28 11:23:46;;;;;;;;;;;;;;;9.98;51.44;101499.91;108009;1254;61630;-66
2024/02/28 11:26:15;;;;;;;;;;;;;;;10.02;51.31;101500.09;108047;1254;60250;-66
2024/02/28 11:28:43;;;;;;;;;;;;;;;10.07;51.17;101497.41;108192;1253;75667;-67
2024/02/28 11:31:11;;;;;;;;;;;;;;;10.13;51.30;101498.92;107785;1254;74104;-67
2024/02/28 11:33:39;;;;;;;;;;;;;;;10.18;51.18;101497.28;107946;1254;71568;-68
2024/02/28 11:36:07;;;;;;;;;;;;;;;10.18;51.27;101493.61;108025;1256;61150;-68
2024/02/28 11:38:37;;;;;;;;;;;;;;;10.19;51.23;101489.99;108156;1254;59744;-67
2024/02/28 11:41:05;;;;;;;;;;;;;;;10.20;51.27;101489.23;108129;1254;73524;-66
2024/02/28 11:43:37;;;;;;;;;;;;;;;10.18;51.32;101484.75;108111;1254;75012;-66
2024/02/28 11:46:18;;;;;;;;;;;;;;;10.20;51.40;101483.08;108152;1254;72543;-66
2024/02/28 11:48:46;;;;;;;;;;;;;;;10.19;51.44;101481.95;108128;1254;61248;-67
2024/02/28 11:51:15;;;;;;;;;;;;;;;10.20;51.36;101479.08;108062;1254;59840;-67
2024/02/28 11:53:42;;;;;;;;;;;;;;;10.22;51.37;101472.02;108101;1254;75650;-67
2024/02/28 11:56:10;;;;;;;;;;;;;;;10.23;51.34;101471.06;108236;1254;73053;-66
2024/02/28 11:58:38;;;;;;;;;;;;;;;10.22;51.46;101467.91;108018;1254;71986;-65
2024/02/28 12:01:05;;;;;;;;;;;;;;;10.22;51.28;101465.04;108012;1254;61362;-67
2024/02/28 12:03:33;;;;;;;;;;;;;;;10.25;51.40;101462.17;108088;1254;61937;-66
2024/02/28 12:06:01;;;;;;;;;;;;;;;10.31;51.39;101457.31;107974;1254;74800;-66
2024/02/28 12:08:29;;;;;;;;;;;;;;;10.39;51.12;101456.80;108096;1254;75231;-65
2024/02/28 12:11:05;;;;;;;;;;;;;;;10.48;50.99;101458.00;108047;1254;74982;-66
2024/02/28 12:13:35;;;;;;;;;;;;;;;10.60;50.85;101453.83;107853;1256;61359;-65
2024/02/28 12:16:03;;;;;;;;;;;;;;;10.71;50.34;101450.79;107999;1254;61110;-65
2024/02/28 12:18:31;;;;;;;;;;;;;;;10.75;49.90;101449.92;108090;1258;74446;-65
2024/02/28 12:20:58;;;;;;;;;;;;;;;10.75;49.67;101448.64;107946;1254;73757;-66
2024/02/28 12:23:26;;;;;;;;;;;;;;;10.71;49.71;101443.01;107894;1254;72111;-65
2024/02/28 12:25:54;;;;;;;;;;;;;;;10.67;49.58;101440.08;108005;1254;62324;-65
2024/02/28 12:28:22;;;;;;;;;;;;;;;10.61;49.81;101440.13;108090;1253;61152;-65
2024/02/28 12:30:49;;;;;;;;;;;;;;;10.59;49.86;101437.56;107987;1254;74976;-65
2024/02/28 12:33:17;;;;;;;;;;;;;;;10.60;49.89;101432.71;107962;1254;71151;-67
2024/02/28 12:35:45;;;;;;;;;;;;;;;10.62;49.68;101436.80;108117;1254;72990;-66
2024/02/28 12:38:14;;;;;;;;;;;;;;;10.64;49.88;101433.34;108100;1254;62310;-67